Time;durP1;ratioP1;P1;durP2;ratioP2;P2;SDS_P1;SDS_P2;PMS_P1;PMS_P2;Temp;Humidity;BMP_temperature;BMP_pressure;BME280_temperature;BME280_humidity;BME280_pressure;Samples;Min_cycle;Max_cycle;Signal;HPM_P1;HPM_P2
2023/10/28 00:00:10;;;;;;;1.52;1.05;;;;;;;10.56;73.23;97006.22;4979335;28;103267;-64
2023/10/28 00:02:39;;;;;;;1.20;1.00;;;;;;;10.48;73.58;97001.13;4980651;28;102649;-65
2023/10/28 00:05:08;;;;;;;2.72;1.30;;;;;;;10.42;73.72;97013.38;4978008;28;102706;-65
2023/10/28 00:07:36;;;;;;;1.63;1.30;;;;;;;10.33;73.62;97012.75;4978348;28;103310;-65
2023/10/28 00:10:09;;;;;;;1.13;1.02;;;;;;;10.49;73.34;97010.72;4980203;28;103207;-65
2023/10/28 00:12:37;;;;;;;2.67;1.20;;;;;;;10.42;73.33;97011.53;4978805;28;102594;-65
2023/10/28 00:15:09;;;;;;;2.15;1.40;;;;;;;10.44;73.55;97014.81;4978399;28;104261;-65
2023/10/28 00:17:37;;;;;;;1.70;1.15;;;;;;;10.44;73.41;97014.81;4979646;28;104023;-65
2023/10/28 00:20:06;;;;;;;2.85;1.23;;;;;;;10.33;73.85;97017.25;4979171;28;104046;-65
2023/10/28 00:22:34;;;;;;;2.80;1.02;;;;;;;10.31;73.61;97020.09;4979104;28;103179;-65
2023/10/28 00:25:02;;;;;;;0.98;0.98;;;;;;;10.37;73.41;97007.91;4981886;28;104049;-65
2023/10/28 00:27:33;;;;;;;1.33;1.00;;;;;;;10.30;73.33;97013.19;4975294;28;104143;-65
2023/10/28 00:30:04;;;;;;;1.20;1.10;;;;;;;10.33;73.71;97014.59;4977075;28;103346;-65
2023/10/28 00:32:32;;;;;;;1.48;1.05;;;;;;;10.33;73.66;97010.13;4976832;28;104457;-65
2023/10/28 00:35:02;;;;;;;1.58;1.33;;;;;;;10.32;73.24;97015.63;4977606;28;102763;-65
2023/10/28 00:37:30;;;;;;;1.80;1.20;;;;;;;10.30;73.29;97015.81;4979084;28;104341;-65
2023/10/28 00:39:58;;;;;;;0.90;0.90;;;;;;;10.27;73.62;97018.88;4988867;28;103469;-65
2023/10/28 00:42:27;;;;;;;4.47;1.30;;;;;;;10.27;73.19;97014.41;4961521;28;102748;-65
2023/10/28 00:44:56;;;;;;;1.55;1.08;;;;;;;10.24;73.19;97017.44;4979483;28;102852;-65
2023/10/28 00:47:24;;;;;;;3.15;1.25;;;;;;;10.25;73.07;97020.94;4977202;28;104132;-65
2023/10/28 00:49:52;;;;;;;2.20;1.30;;;;;;;10.21;73.02;97032.94;4978173;28;103186;-65
2023/10/28 00:52:21;;;;;;;1.77;1.10;;;;;;;10.25;73.18;97032.31;4957186;28;102738;-65
2023/10/28 00:54:51;;;;;;;1.83;1.30;;;;;;;10.22;73.14;97040.69;4979333;28;102755;-65
2023/10/28 00:57:20;;;;;;;1.77;1.15;;;;;;;10.25;72.70;97042.91;4980700;28;103989;-65
2023/10/28 00:59:48;;;;;;;1.70;1.20;;;;;;;10.18;73.07;97043.94;4962128;28;104138;-66
2023/10/28 01:02:18;;;;;;;3.30;1.23;;;;;;;10.24;73.27;97051.84;4976259;28;102773;-65
2023/10/28 01:04:46;;;;;;;2.47;1.17;;;;;;;10.18;73.31;97043.94;4980316;28;104854;-65
2023/10/28 01:07:14;;;;;;;1.17;1.08;;;;;;;10.17;73.19;97051.06;4974920;28;104438;-65
2023/10/28 01:09:46;;;;;;;1.02;0.93;;;;;;;10.19;73.08;97051.69;4980946;28;103270;-65
2023/10/28 01:12:16;;;;;;;1.13;1.10;;;;;;;10.16;72.80;97053.91;4960829;28;102667;-65
2023/10/28 01:14:44;;;;;;;2.53;0.98;;;;;;;10.22;73.01;97042.53;4962466;28;104495;-65
2023/10/28 01:17:15;;;;;;;1.27;1.10;;;;;;;10.16;73.16;97053.91;4984456;28;103286;-65
2023/10/28 01:19:44;;;;;;;2.05;1.27;;;;;;;10.11;73.11;97044.78;4978234;28;103454;-65
2023/10/28 01:22:14;;;;;;;1.80;1.42;;;;;;;10.12;73.22;97051.66;4961537;28;102617;-65
2023/10/28 01:24:42;;;;;;;1.92;1.20;;;;;;;10.02;72.98;97056.59;4960592;28;102930;-65
2023/10/28 01:27:11;;;;;;;2.08;1.42;;;;;;;10.02;73.03;97053.94;4960879;28;103357;-65
2023/10/28 01:29:39;;;;;;;2.58;1.33;;;;;;;10.12;72.74;97056.97;4974678;28;104261;-65
2023/10/28 01:32:07;;;;;;;2.42;1.40;;;;;;;10.16;72.94;97065.31;4978055;28;102787;-66
2023/10/28 01:34:49;;;;;;;1.80;1.30;;;;;;;10.18;72.99;97062.44;4985359;28;102801;-66
2023/10/28 01:37:19;;;;;;;1.90;1.33;;;;;;;10.19;72.88;97064.06;4961507;28;104210;-66
2023/10/28 01:39:48;;;;;;;1.20;0.98;;;;;;;10.22;72.88;97055.75;4976559;28;104250;-66
2023/10/28 01:42:20;;;;;;;2.47;1.23;;;;;;;10.23;72.84;97065.28;4967194;28;102735;-66
2023/10/28 01:44:48;;;;;;;2.47;1.30;;;;;;;10.16;72.75;97069.78;4977540;28;102998;-66
2023/10/28 01:47:16;;;;;;;1.75;1.27;;;;;;;10.06;73.09;97063.09;4977230;28;103811;-66
2023/10/28 01:49:45;;;;;;;1.35;1.13;;;;;;;10.10;73.14;97072.22;4980381;28;103273;-66
2023/10/28 01:52:14;;;;;;;1.90;1.30;;;;;;;10.08;72.92;97071.63;4965824;28;102662;-65
2023/10/28 01:54:43;;;;;;;2.38;1.23;;;;;;;10.08;73.04;97062.88;4973752;28;102728;-66
2023/10/28 01:57:11;;;;;;;3.10;1.20;;;;;;;10.04;73.11;97070.41;4979184;28;103877;-66
2023/10/28 01:59:39;;;;;;;3.42;1.40;;;;;;;10.07;73.16;97075.31;4967050;28;103991;-66
2023/10/28 02:02:07;;;;;;;1.95;1.02;;;;;;;10.13;72.78;97085.03;4976639;28;103607;-66
2023/10/28 02:04:36;;;;;;;2.30;1.08;;;;;;;10.16;72.77;97080.38;4962407;28;104000;-65
2023/10/28 02:07:06;;;;;;;2.22;1.20;;;;;;;10.17;72.97;97087.28;4981180;28;104372;-65
2023/10/28 02:09:34;;;;;;;1.27;1.08;;;;;;;10.19;72.81;97087.88;4978363;28;103409;-65
2023/10/28 02:12:04;;;;;;;1.90;1.23;;;;;;;10.19;72.84;97087.88;4961708;28;102688;-66
2023/10/28 02:14:32;;;;;;;1.63;1.20;;;;;;;10.10;72.98;97098.69;4980599;28;103797;-65
2023/10/28 02:17:00;;;;;;;1.50;0.98;;;;;;;10.02;73.23;97101.56;4980800;28;104029;-66
2023/10/28 02:19:29;;;;;;;1.70;1.15;;;;;;;10.13;72.88;97092.19;4981076;28;103250;-65
2023/10/28 02:21:58;;;;;;;1.65;1.05;;;;;;;10.08;72.84;97095.41;4974374;28;102672;-66
2023/10/28 02:24:42;;;;;;;1.50;1.20;;;;;;;10.15;72.79;97099.91;4979010;28;102727;-66
2023/10/28 02:27:12;;;;;;;3.88;1.30;;;;;;;10.10;73.03;97096.03;4980870;28;103338;-65
2023/10/28 02:29:40;;;;;;;2.75;1.20;;;;;;;10.07;72.68;97093.81;4980428;28;103492;-66
2023/10/28 02:32:10;;;;;;;2.58;1.42;;;;;;;10.04;72.91;97102.13;4981987;28;102778;-65
2023/10/28 02:34:38;;;;;;;2.42;1.23;;;;;;;10.09;72.54;97101.53;4965989;28;102871;-65
2023/10/28 02:37:06;;;;;;;2.05;1.10;;;;;;;10.17;72.36;97103.16;4978643;28;104545;-66
2023/10/28 02:39:34;;;;;;;2.95;1.20;;;;;;;10.18;72.42;97100.31;4981815;28;103332;-66
2023/10/28 02:42:02;;;;;;;1.25;1.13;;;;;;;10.22;72.39;97101.53;4971963;28;103169;-65
2023/10/28 02:44:32;;;;;;;2.58;1.27;;;;;;;10.22;72.65;97106.03;4980950;28;103729;-65
2023/10/28 02:47:00;;;;;;;1.65;1.17;;;;;;;10.21;72.54;97104.38;4978424;28;103314;-66
2023/10/28 02:49:28;;;;;;;3.60;1.25;;;;;;;10.10;72.48;97108.44;4981597;28;103315;-66
2023/10/28 02:51:56;;;;;;;1.75;1.20;;;;;;;10.10;72.26;97111.91;4982276;28;102630;-66
2023/10/28 02:54:25;;;;;;;2.50;1.42;;;;;;;10.13;72.42;97108.03;4963039;28;102950;-66
2023/10/28 02:56:53;;;;;;;1.92;1.27;;;;;;;10.10;72.55;97103.97;4977789;28;104136;-65
2023/10/28 02:59:21;;;;;;;1.40;1.20;;;;;;;10.13;72.51;97106.22;4964573;28;104104;-65
2023/10/28 03:01:50;;;;;;;3.33;1.40;;;;;;;10.15;72.07;97105.19;4979706;28;102714;-66
2023/10/28 03:04:18;;;;;;;2.78;1.40;;;;;;;10.13;72.56;97108.84;4963119;28;103864;-65
2023/10/28 03:06:46;;;;;;;5.05;1.90;;;;;;;10.05;72.00;97108.25;4977291;28;104257;-66
2023/10/28 03:09:14;;;;;;;2.92;1.50;;;;;;;10.09;72.23;97102.34;4981523;28;104268;-65
2023/10/28 03:11:42;;;;;;;2.63;1.52;;;;;;;10.05;71.85;97117.00;4979513;28;102765;-65
2023/10/28 03:14:10;;;;;;;3.05;1.67;;;;;;;10.06;72.09;97105.41;4977439;28;102941;-66
2023/10/28 03:16:41;;;;;;;4.13;1.63;;;;;;;10.05;72.06;97106.41;4978052;28;104318;-66
2023/10/28 03:19:11;;;;;;;2.97;1.40;;;;;;;10.07;71.74;97101.75;4981203;28;103341;-65
2023/10/28 03:21:39;;;;;;;3.10;1.52;;;;;;;10.07;71.92;97106.22;4964961;28;102689;-66
2023/10/28 03:24:08;;;;;;;2.45;1.40;;;;;;;10.04;71.95;97104.78;4963817;28;104476;-66
2023/10/28 03:26:36;;;;;;;4.20;2.03;;;;;;;10.05;71.53;97103.78;4980791;28;104456;-66
2023/10/28 03:29:06;;;;;;;4.20;2.22;;;;;;;10.02;70.72;97106.00;4979244;28;104188;-66
2023/10/28 03:31:34;;;;;;;3.22;1.40;;;;;;;10.04;71.02;97110.06;4981486;28;102646;-65
2023/10/28 03:34:02;;;;;;;3.05;1.70;;;;;;;10.06;71.50;97108.06;4985515;28;103892;-66
2023/10/28 03:36:31;;;;;;;2.03;1.45;;;;;;;10.09;71.42;97106.84;4978821;28;104443;-65
2023/10/28 03:39:01;;;;;;;5.22;1.70;;;;;;;10.05;71.30;97105.63;4984098;28;104099;-65
2023/10/28 03:41:29;;;;;;;3.00;1.80;;;;;;;10.08;71.45;97110.50;4982553;28;102620;-65
2023/10/28 03:43:57;;;;;;;4.55;1.98;;;;;;;10.03;71.32;97113.72;4988811;28;103800;-66
2023/10/28 03:46:26;;;;;;;4.57;2.17;;;;;;;10.07;71.38;97109.69;4979091;28;104474;-66
2023/10/28 03:48:54;;;;;;;5.85;2.35;;;;;;;10.04;71.55;97114.56;4978937;28;103295;-65
2023/10/28 03:51:22;;;;;;;6.05;1.70;;;;;;;10.03;71.94;97111.09;4980512;28;102546;-65
2023/10/28 03:53:51;;;;;;;4.38;1.75;;;;;;;10.01;71.58;97102.56;4978632;28;102795;-66
2023/10/28 03:56:19;;;;;;;5.65;2.10;;;;;;;10.02;71.85;97111.28;4979518;28;103303;-65
2023/10/28 03:58:50;;;;;;;4.72;2.00;;;;;;;10.05;71.69;97119.66;4981031;28;104047;-65
2023/10/28 04:01:18;;;;;;;3.25;1.85;;;;;;;10.02;71.45;97114.78;4975568;28;103157;-66
2023/10/28 04:03:46;;;;;;;5.57;2.30;;;;;;;10.02;71.91;97112.13;4979761;28;104366;-65
2023/10/28 04:06:14;;;;;;;5.40;1.80;;;;;;;10.08;71.44;97116.59;4982798;28;103894;-65
2023/10/28 04:08:41;;;;;;;3.83;1.63;;;;;;;10.08;71.14;97106.00;4979616;28;103281;-65
2023/10/28 04:11:11;;;;;;;4.88;2.38;;;;;;;10.10;71.12;97109.28;4978573;28;102606;-66
2023/10/28 04:13:42;;;;;;;5.20;2.00;;;;;;;10.14;70.85;97093.81;4984162;28;103772;-66
2023/10/28 04:16:10;;;;;;;4.88;2.00;;;;;;;10.17;70.79;97106.63;4983001;28;103421;-65
2023/10/28 04:18:38;;;;;;;6.18;1.92;;;;;;;10.17;70.72;97097.88;4977617;28;103331;-64
2023/10/28 04:21:08;;;;;;;4.07;1.88;;;;;;;10.17;70.94;97109.25;4979250;28;102718;-64
2023/10/28 04:23:36;;;;;;;5.50;2.30;;;;;;;10.18;70.40;97094.19;4978643;28;102751;-64
2023/10/28 04:26:05;;;;;;;5.63;1.73;;;;;;;10.15;70.99;97103.34;4981053;28;104107;-64
2023/10/28 04:28:34;;;;;;;5.28;2.30;;;;;;;10.22;70.53;97096.22;4981344;28;103278;-64
2023/10/28 04:31:02;;;;;;;4.38;2.00;;;;;;;10.24;70.63;97096.03;4979351;28;102837;-64
2023/10/28 04:33:31;;;;;;;3.50;1.67;;;;;;;10.19;70.91;97107.25;4964406;28;103979;-64
2023/10/28 04:35:58;;;;;;;4.32;2.42;;;;;;;10.18;70.66;97094.19;4982792;28;103980;-67
2023/10/28 04:38:27;;;;;;;4.50;1.77;;;;;;;10.17;70.34;97103.97;4979140;28;103037;-67
2023/10/28 04:40:56;;;;;;;6.45;2.10;;;;;;;10.11;70.65;97102.97;4983594;28;102885;-66
2023/10/28 04:43:24;;;;;;;4.47;1.67;;;;;;;10.18;70.61;97104.78;4983722;28;102741;-66
2023/10/28 04:45:54;;;;;;;5.68;1.90;;;;;;;10.13;70.46;97087.69;4964643;28;103289;-67
2023/10/28 04:48:25;;;;;;;5.95;2.25;;;;;;;10.06;70.52;97091.34;4977756;28;104706;-66
2023/10/28 04:50:53;;;;;;;3.97;1.65;;;;;;;10.09;70.32;97096.25;4977588;28;102580;-66
2023/10/28 04:53:22;;;;;;;4.85;2.03;;;;;;;9.99;70.39;97088.72;4978889;28;103022;-66
2023/10/28 04:55:50;;;;;;;4.95;1.83;;;;;;;10.06;70.06;97092.19;4978965;28;103452;-66
2023/10/28 04:58:18;;;;;;;3.03;1.40;;;;;;;10.05;69.70;97087.91;4980384;28;103357;-66
2023/10/28 05:00:46;;;;;;;3.65;1.90;;;;;;;10.07;69.52;97087.69;4975402;28;103965;-66
2023/10/28 05:03:15;;;;;;;2.47;1.45;;;;;;;10.06;69.93;97092.19;4960194;28;102836;-66
2023/10/28 05:05:47;;;;;;;3.88;1.70;;;;;;;10.05;69.63;97098.47;4973730;28;103333;-66
2023/10/28 05:08:17;;;;;;;3.38;1.70;;;;;;;10.04;69.76;97099.50;4978535;28;103284;-66
2023/10/28 05:10:45;;;;;;;3.83;1.65;;;;;;;10.03;69.09;97103.16;4977377;28;102730;-66
2023/10/28 05:13:13;;;;;;;3.25;1.38;;;;;;;10.06;69.36;97102.75;4979405;28;104602;-66
2023/10/28 05:15:41;;;;;;;5.38;1.98;;;;;;;10.08;68.98;97105.19;4986166;28;103438;-66
2023/10/28 05:18:09;;;;;;;3.85;1.60;;;;;;;10.08;68.66;97084.84;4978903;28;103437;-66
2023/10/28 05:20:39;;;;;;;3.83;1.67;;;;;;;10.02;68.57;97090.13;4976717;28;102752;-67
2023/10/28 05:23:06;;;;;;;5.00;1.90;;;;;;;9.98;68.82;97097.66;4977566;28;103607;-66
2023/10/28 05:25:37;;;;;;;4.00;1.75;;;;;;;10.03;68.81;97092.56;4964120;28;104214;-66
2023/10/28 05:28:14;;;;;;;5.25;1.63;;;;;;;10.04;68.67;97094.22;4981794;28;103307;-63
2023/10/28 05:30:55;;;;;;;4.68;1.63;;;;;;;10.01;68.67;97099.91;4979755;28;102663;-64
2023/10/28 05:33:24;;;;;;;4.65;1.80;;;;;;;10.01;68.03;97099.91;4980723;28;102631;-64
2023/10/28 05:35:55;;;;;;;5.07;1.70;;;;;;;10.05;68.14;97105.63;4979629;28;103238;-64
2023/10/28 05:38:23;;;;;;;3.45;1.58;;;;;;;10.09;67.85;97105.00;4978200;28;103268;-63
2023/10/28 05:40:51;;;;;;;3.45;1.60;;;;;;;10.04;68.25;97103.97;4976619;28;102609;-64
2023/10/28 05:43:19;;;;;;;2.10;1.42;;;;;;;10.08;67.85;97106.00;4980919;28;102686;-63
2023/10/28 05:45:47;;;;;;;1.65;1.30;;;;;;;10.13;67.86;97108.03;4958643;28;103585;-64
2023/10/28 05:48:18;;;;;;;4.07;1.95;;;;;;;10.11;67.78;97110.91;4965387;28;104121;-63
2023/10/28 05:50:47;;;;;;;1.90;1.33;;;;;;;10.11;68.04;97118.84;4978141;28;102689;-64
2023/10/28 05:53:17;;;;;;;4.55;1.70;;;;;;;10.06;68.08;97123.94;4984292;28;103226;-63
2023/10/28 05:55:48;;;;;;;1.90;1.40;;;;;;;10.04;67.95;97131.25;4979380;28;103662;-63
2023/10/28 05:58:16;;;;;;;4.13;1.40;;;;;;;10.07;68.06;97130.84;4977830;28;102727;-64
2023/10/28 06:00:45;;;;;;;7.45;1.83;;;;;;;10.00;68.20;97127.38;4970066;28;103190;-64
2023/10/28 06:03:13;;;;;;;2.03;1.23;;;;;;;10.02;68.44;97129.81;4975527;28;104056;-61
2023/10/28 06:05:41;;;;;;;2.75;1.40;;;;;;;10.03;68.57;97131.44;4974332;28;104135;-62
2023/10/28 06:08:11;;;;;;;3.13;1.75;;;;;;;10.04;68.16;97135.72;4981942;28;103092;-62
2023/10/28 06:10:40;;;;;;;3.35;1.65;;;;;;;10.05;68.51;97138.16;4976935;28;102693;-62
2023/10/28 06:13:09;;;;;;;7.05;1.80;;;;;;;10.05;68.13;97143.44;4980804;28;104080;-62
2023/10/28 06:15:37;;;;;;;4.05;1.73;;;;;;;10.05;68.25;97137.34;4977785;28;103685;-62
2023/10/28 06:18:05;;;;;;;3.80;1.90;;;;;;;10.06;68.17;97137.16;4960955;28;104173;-62
2023/10/28 06:20:33;;;;;;;3.05;1.60;;;;;;;10.09;67.64;97134.09;4974619;28;102786;-62
2023/10/28 06:23:03;;;;;;;3.20;1.70;;;;;;;10.12;68.32;97141.59;4978516;28;102732;-62
2023/10/28 06:25:31;;;;;;;5.82;1.90;;;;;;;10.08;68.11;97148.31;4979722;28;103293;-62
2023/10/28 06:28:01;;;;;;;4.32;1.88;;;;;;;10.20;67.84;97155.66;4969664;28;103490;-62
2023/10/28 06:30:29;;;;;;;3.58;1.60;;;;;;;10.23;67.98;97157.88;4982001;28;102672;-61
2023/10/28 06:32:58;;;;;;;3.35;1.60;;;;;;;10.17;67.80;97162.19;4978561;28;104063;-62
2023/10/28 06:35:26;;;;;;;4.55;1.70;;;;;;;10.18;67.75;97157.69;4969010;28;104224;-61
2023/10/28 06:37:54;;;;;;;4.13;1.83;;;;;;;10.30;67.79;97166.66;4981553;28;103193;-62
2023/10/28 06:40:22;;;;;;;4.18;1.75;;;;;;;10.31;67.85;97172.75;4978495;28;102759;-62
2023/10/28 06:42:50;;;;;;;2.30;1.48;;;;;;;10.34;67.74;97178.47;4980482;28;102714;-61
2023/10/28 06:45:19;;;;;;;4.45;1.95;;;;;;;10.35;67.57;97166.03;4984818;28;103325;-62
2023/10/28 06:47:47;;;;;;;3.97;1.95;;;;;;;10.39;67.39;97175.25;4979169;28;103362;-63
2023/10/28 06:50:19;;;;;;;6.82;1.85;;;;;;;10.41;67.43;97178.50;4980687;28;102780;-63
2023/10/28 06:52:48;;;;;;;2.97;1.80;;;;;;;10.37;67.21;97178.06;4968683;28;103705;-62
2023/10/28 06:55:18;;;;;;;4.65;1.75;;;;;;;10.41;67.25;97186.44;4977657;28;103215;-62
2023/10/28 06:57:48;;;;;;;3.65;1.70;;;;;;;10.43;67.69;97187.84;4975857;28;102959;-60
2023/10/28 07:00:16;;;;;;;3.83;1.88;;;;;;;10.55;67.59;97192.53;4985818;28;102685;-60
2023/10/28 07:02:46;;;;;;;3.33;1.70;;;;;;;10.53;67.00;97189.28;4979525;28;104150;-62
2023/10/28 07:05:14;;;;;;;7.10;2.20;;;;;;;10.54;66.96;97198.84;4984627;28;104167;-62
2023/10/28 07:07:43;;;;;;;5.20;2.17;;;;;;;10.58;66.65;97210.66;4974139;28;103262;-62
2023/10/28 07:10:14;;;;;;;3.97;1.73;;;;;;;10.79;66.30;97222.84;4974818;28;102656;-62
2023/10/28 07:12:42;;;;;;;6.50;2.13;;;;;;;11.03;66.26;97224.03;4976786;28;102768;-62
2023/10/28 07:15:11;;;;;;;3.25;1.63;;;;;;;11.06;66.14;97215.66;4980181;28;103381;-61
2023/10/28 07:17:40;;;;;;;4.15;2.05;;;;;;;11.09;65.95;97212.59;4965711;28;103264;-62
2023/10/28 07:20:12;;;;;;;5.00;1.88;;;;;;;11.04;65.94;97206.31;4979125;28;103033;-62
2023/10/28 07:22:41;;;;;;;3.78;1.95;;;;;;;11.22;65.60;97210.94;4982879;28;104518;-62
2023/10/28 07:25:09;;;;;;;5.53;2.03;;;;;;;11.26;65.63;97217.47;4975135;28;104191;-62
2023/10/28 07:30:30;;;;;;;5.22;2.00;;;;;;;11.88;64.18;97219.63;4980080;28;103238;-63
2023/10/28 07:32:58;;;;;;;3.65;1.70;;;;;;;12.02;63.88;97215.91;4984229;28;103585;-63
2023/10/28 07:35:28;;;;;;;5.13;1.83;;;;;;;11.96;63.23;97226.56;4979689;28;104225;-63
2023/10/28 07:37:56;;;;;;;4.60;2.00;;;;;;;12.01;63.35;97219.56;4977583;28;103032;-63
2023/10/28 07:40:24;;;;;;;4.68;1.60;;;;;;;12.39;62.46;97215.25;4978289;28;104583;-65
2023/10/28 07:42:52;;;;;;;5.82;2.03;;;;;;;12.05;62.95;97223.47;4972957;28;102690;-65
2023/10/28 07:45:20;;;;;;;6.07;1.90;;;;;;;11.93;63.64;97222.47;4974999;28;103185;-66
2023/10/28 07:47:48;;;;;;;5.60;1.83;;;;;;;12.04;63.23;97224.47;4972905;28;103289;-66
2023/10/28 07:50:16;;;;;;;4.57;1.75;;;;;;;12.42;61.63;97231.56;4970720;28;102673;-63
2023/10/28 07:52:46;;;;;;;5.32;2.20;;;;;;;12.63;61.43;97236.72;4974800;28;102814;-65
2023/10/28 07:55:14;;;;;;;7.82;2.35;;;;;;;12.43;60.73;97249.13;4974151;28;104386;-65
2023/10/28 07:57:44;;;;;;;5.90;2.10;;;;;;;12.73;61.09;97240.53;4973289;28;104188;-65
2023/10/28 08:00:14;;;;;;;2.58;1.50;;;;;;;12.98;60.36;97246.81;4978848;28;102956;-65
2023/10/28 08:02:45;;;;;;;5.45;2.28;;;;;;;13.40;59.84;97252.34;4970730;28;102797;-63
2023/10/28 08:05:13;;;;;;;5.25;2.10;;;;;;;13.19;59.03;97250.91;4967102;28;103309;-63
2023/10/28 08:07:42;;;;;;;3.45;1.63;;;;;;;13.22;59.65;97253.16;4982298;28;103678;-65
2023/10/28 08:10:11;;;;;;;5.55;1.70;;;;;;;13.39;59.17;97254.22;4969170;28;102688;-65
2023/10/28 08:12:39;;;;;;;5.20;1.85;;;;;;;13.09;59.35;97246.91;4977203;28;103647;-65
2023/10/28 08:15:11;;;;;;;4.40;1.90;;;;;;;13.03;59.56;97261.06;4972207;28;104083;-65
2023/10/28 08:17:39;;;;;;;7.53;2.65;;;;;;;13.01;60.00;97252.53;4946046;28;103285;-65
2023/10/28 08:20:08;;;;;;;5.00;1.75;;;;;;;13.61;58.10;97261.72;4944398;28;102650;-65
2023/10/28 08:22:39;;;;;;;5.32;1.65;;;;;;;13.45;58.41;97254.34;4950697;28;103129;-65
2023/10/28 08:25:08;;;;;;;5.43;1.98;;;;;;;13.29;58.09;97256.53;4946443;28;103584;-64
2023/10/28 08:27:38;;;;;;;4.28;1.73;;;;;;;13.46;57.83;97256.78;4971599;28;103210;-64
2023/10/28 08:30:07;;;;;;;3.47;1.80;;;;;;;13.71;57.52;97254.03;4950574;28;104279;-65
2023/10/28 08:32:38;;;;;;;5.53;2.45;;;;;;;13.67;58.15;97255.53;4949131;28;102796;-64
2023/10/28 08:35:06;;;;;;;5.45;1.95;;;;;;;13.43;57.88;97267.88;4945435;28;103859;-64
2023/10/28 08:37:34;;;;;;;3.78;1.92;;;;;;;13.41;57.75;97254.81;4944445;28;103319;-64
2023/10/28 08:40:06;;;;;;;4.75;1.60;;;;;;;13.32;57.80;97253.41;4946771;28;102817;-64
2023/10/28 08:42:35;;;;;;;3.20;1.65;;;;;;;13.46;57.33;97256.00;4944273;28;102797;-64
2023/10/28 08:45:08;;;;;;;4.20;1.60;;;;;;;13.78;57.01;97253.94;4965311;28;104587;-65
2023/10/28 08:47:39;;;;;;;3.75;1.65;;;;;;;13.65;56.81;97265.59;4947111;28;103211;-64
2023/10/28 08:50:09;;;;;;;5.40;1.88;;;;;;;13.83;57.38;97261.28;4949993;28;102901;-64
2023/10/28 08:52:38;;;;;;;3.20;1.80;;;;;;;14.07;56.29;97268.31;4953940;28;103800;-64
2023/10/28 08:55:10;;;;;;;7.68;1.80;;;;;;;14.09;55.97;97270.75;4939568;28;104019;-65
2023/10/28 08:57:43;;;;;;;6.95;1.65;;;;;;;14.12;56.04;97267.63;4950280;28;103196;-65
2023/10/28 09:00:15;;;;;;;4.00;2.08;;;;;;;14.13;55.78;97273.78;4947723;28;103032;-65
2023/10/28 09:02:46;;;;;;;3.90;1.80;;;;;;;14.47;54.85;97282.09;4947332;28;102635;-65
2023/10/28 09:05:15;;;;;;;4.57;1.75;;;;;;;14.43;54.53;97277.22;4966878;28;103292;-64
2023/10/28 09:07:45;;;;;;;4.28;2.03;;;;;;;14.56;54.84;97283.41;4945781;28;103190;-65
2023/10/28 09:10:16;;;;;;;4.57;1.98;;;;;;;14.79;54.43;97280.00;4948378;28;102653;-65
2023/10/28 09:12:46;;;;;;;5.35;1.90;;;;;;;14.91;54.21;97288.00;4950928;28;103536;-65
2023/10/28 09:15:20;;;;;;;4.35;1.75;;;;;;;14.72;53.85;97274.75;4947161;28;103297;-65
2023/10/28 09:17:50;;;;;;;4.88;1.70;;;;;;;14.81;54.41;97274.44;4946645;28;103216;-65
2023/10/28 09:20:18;;;;;;;8.93;1.92;;;;;;;14.66;54.32;97275.69;4948801;28;102730;-65
2023/10/28 09:22:46;;;;;;;2.85;1.55;;;;;;;14.87;54.24;97282.31;4933879;28;103004;-65
2023/10/28 09:25:16;;;;;;;4.18;1.90;;;;;;;14.51;54.38;97272.63;4956485;28;104124;-65
2023/10/28 09:27:45;;;;;;;4.15;1.77;;;;;;;14.38;54.15;97279.78;4947164;28;103277;-66
2023/10/28 09:30:14;;;;;;;3.95;1.88;;;;;;;14.36;54.78;97273.06;4948729;28;103009;-66
2023/10/28 09:32:45;;;;;;;5.03;1.70;;;;;;;14.32;54.73;97269.19;4948858;28;102797;-65
2023/10/28 09:35:13;;;;;;;3.53;1.70;;;;;;;14.35;54.21;97277.56;4949696;28;104074;-65
2023/10/28 09:37:42;;;;;;;8.63;2.17;;;;;;;14.64;54.01;97277.78;4946763;28;103219;-65
2023/10/28 09:40:12;;;;;;;4.35;1.90;;;;;;;14.67;54.19;97280.00;4953990;28;103078;-65
2023/10/28 09:42:44;;;;;;;3.25;1.75;;;;;;;14.40;54.22;97285.69;4950968;28;104049;-64
2023/10/28 09:45:12;;;;;;;6.78;1.90;;;;;;;14.48;53.70;97281.06;4945790;28;104032;-65
2023/10/28 09:47:50;;;;;;;5.20;1.92;;;;;;;14.60;53.71;97282.69;4948856;28;103303;-65
2023/10/28 09:50:21;;;;;;;4.13;1.77;;;;;;;14.71;53.75;97283.81;4957786;28;103134;-64
2023/10/28 09:52:53;;;;;;;4.40;1.77;;;;;;;14.55;54.17;97284.44;4958054;28;102829;-63
2023/10/28 09:55:26;;;;;;;5.10;1.80;;;;;;;14.55;53.63;97281.78;4946953;28;103774;-63
2023/10/28 09:58:09;;;;;;;4.72;1.90;;;;;;;14.64;54.26;97283.09;4947577;28;103000;-63
2023/10/28 10:00:37;;;;;;;5.60;2.00;;;;;;;14.51;54.09;97288.59;4951736;28;102721;-63
2023/10/28 10:03:25;;;;;;;5.18;2.00;;;;;;;14.63;53.32;97285.97;4951795;28;103913;-63
2023/10/28 10:05:55;;;;;;;4.22;1.83;;;;;;;14.90;53.40;97283.72;4947355;28;104238;-64
2023/10/28 10:08:24;;;;;;;6.13;2.15;;;;;;;14.94;53.02;97292.88;4967016;28;103180;-63
2023/10/28 10:10:55;;;;;;;3.50;1.98;;;;;;;15.01;52.70;97293.59;4955264;28;102629;-63
2023/10/28 10:13:23;;;;;;;4.75;1.60;;;;;;;15.07;52.85;97287.31;4947614;28;104024;-64
2023/10/28 10:16:00;;;;;;;4.38;1.95;;;;;;;15.29;52.55;97296.59;4962139;28;103616;-64
2023/10/28 10:18:37;;;;;;;5.00;1.80;;;;;;;15.49;51.71;97288.22;4954830;28;103288;-63
2023/10/28 10:21:07;;;;;;;3.88;1.90;;;;;;;15.51;50.99;97288.78;4951959;28;102696;-64
2023/10/28 10:23:41;;;;;;;4.03;2.05;;;;;;;15.62;51.60;97293.31;4955038;28;102680;-63
2023/10/28 10:26:20;;;;;;;6.15;2.13;;;;;;;15.77;50.81;97284.78;4959923;28;104158;-64
2023/10/28 10:28:48;;;;;;;4.43;1.75;;;;;;;15.74;51.37;97286.06;4954798;28;103215;-64
2023/10/28 10:31:19;;;;;;;5.80;2.20;;;;;;;15.71;51.22;97297.22;4951728;28;102618;-64
2023/10/28 10:34:00;;;;;;;5.13;1.90;;;;;;;15.58;51.04;97300.16;4955547;28;104450;-65
2023/10/28 10:36:30;;;;;;;3.97;1.88;;;;;;;15.37;51.86;97297.03;4947539;28;103248;-66
2023/10/28 10:39:11;;;;;;;8.80;2.20;;;;;;;15.38;51.64;97290.69;4952743;28;103236;-65
2023/10/28 10:41:41;;;;;;;5.80;1.85;;;;;;;15.45;52.00;97298.56;4961304;28;103310;-65
2023/10/28 10:44:25;;;;;;;4.30;2.00;;;;;;;15.46;51.28;97294.00;4948819;28;102787;-65
2023/10/28 10:46:57;;;;;;;6.35;2.08;;;;;;;15.65;51.37;97290.16;4954168;28;103272;-65
2023/10/28 10:49:30;;;;;;;4.40;1.95;;;;;;;15.73;51.61;97288.97;4950229;28;103221;-65
2023/10/28 10:51:59;;;;;;;4.28;1.92;;;;;;;15.88;51.57;97286.66;4946117;28;102698;-66
2023/10/28 10:54:31;;;;;;;3.72;1.90;;;;;;;15.61;51.54;97291.69;4955143;28;103061;-65
2023/10/28 10:56:59;;;;;;;7.43;1.85;;;;;;;15.56;51.61;97288.91;4964785;28;103225;-61
2023/10/28 10:59:29;;;;;;;7.45;2.17;;;;;;;15.42;51.22;97294.50;4952393;28;103290;-63
2023/10/28 11:01:57;;;;;;;9.20;2.58;;;;;;;15.47;51.63;97300.97;4963098;28;102901;-64
2023/10/28 11:04:30;;;;;;;3.15;1.58;;;;;;;15.52;51.95;97293.09;4958550;28;103292;-71
2023/10/28 11:07:02;;;;;;;4.10;1.80;;;;;;;15.49;52.13;97297.03;4973538;28;103124;-70
2023/10/28 11:09:31;;;;;;;3.40;1.67;;;;;;;15.38;52.41;97292.50;4955811;28;103269;-65
2023/10/28 11:12:01;;;;;;;4.28;1.88;;;;;;;15.23;52.14;97298.34;4954072;28;102818;-69
2023/10/28 11:14:30;;;;;;;8.25;2.55;;;;;;;15.11;52.17;97293.00;4960267;28;103636;-71
2023/10/28 11:21:12;;;;;;;5.70;2.28;;;;;;;14.94;52.60;97292.88;4946034;28;102941;-68
2023/10/28 11:23:43;;;;;;;4.05;2.17;;;;;;;14.95;53.04;97293.66;4957657;28;102772;-67
2023/10/28 11:26:19;;;;;;;4.47;2.13;;;;;;;14.94;53.53;97295.53;4950234;28;103875;-61
2023/10/28 11:28:48;;;;;;;3.80;1.90;;;;;;;14.66;53.40;97294.34;4953723;28;103703;-68
2023/10/28 11:31:20;;;;;;;3.75;1.83;;;;;;;14.89;53.36;97296.22;4955471;28;102762;-66
2023/10/28 11:33:52;;;;;;;3.72;2.00;;;;;;;14.87;53.28;97295.66;4954164;28;102717;-72
2023/10/28 11:36:23;;;;;;;6.18;2.15;;;;;;;14.81;53.81;97287.78;4958410;28;103901;-68
2023/10/28 11:38:51;;;;;;;4.90;2.05;;;;;;;14.69;52.91;97295.75;4959848;28;104161;-67
2023/10/28 11:45:38;;;;;;;4.95;1.83;;;;;;;14.71;53.82;97283.81;4947137;28;103090;-64